Time;durP1;ratioP1;P1;durP2;ratioP2;P2;SDS_P1;SDS_P2;PMS_P1;PMS_P2;Temp;Humidity;BMP_temperature;BMP_pressure;BME280_temperature;BME280_humidity;BME280_pressure;Samples;Min_cycle;Max_cycle;Signal;HPM_P1;HPM_P2
2022/09/12 00:02:19;;;;;;;11.20;10.27;;;13.40;99.90;;;;;;5033729;28;20174;-67
2022/09/12 00:04:44;;;;;;;13.63;12.33;;;13.30;99.90;;;;;;5032621;28;20182;-67
2022/09/12 00:07:10;;;;;;;15.07;13.47;;;13.20;99.90;;;;;;5031043;28;20175;-67
2022/09/12 00:09:35;;;;;;;15.00;13.50;;;13.20;99.90;;;;;;5040894;28;20216;-67
2022/09/12 00:12:01;;;;;;;13.63;12.07;;;13.10;99.90;;;;;;5033070;28;20223;-67
2022/09/12 00:14:27;;;;;;;14.40;12.97;;;13.10;99.90;;;;;;5030056;28;20269;-67
2022/09/12 00:16:55;;;;;;;12.87;11.50;;;13.10;99.90;;;;;;5029131;28;20179;-67
2022/09/12 00:19:21;;;;;;;13.87;12.50;;;13.10;99.90;;;;;;5029694;28;20225;-67
2022/09/12 00:21:46;;;;;;;19.17;15.10;;;13.10;99.90;;;;;;5033274;28;20445;-67
2022/09/12 00:24:12;;;;;;;13.87;12.57;;;13.10;99.90;;;;;;5034003;28;20185;-67
2022/09/12 00:26:39;;;;;;;14.53;12.77;;;13.00;99.90;;;;;;5033003;28;20181;-67
2022/09/12 00:29:04;;;;;;;11.63;10.60;;;13.00;99.90;;;;;;5035165;28;20215;-67
2022/09/12 00:31:30;;;;;;;13.40;12.10;;;13.00;99.90;;;;;;5031908;28;20433;-67
2022/09/12 00:33:59;;;;;;;13.20;12.03;;;13.00;99.90;;;;;;5031480;28;20201;-67
2022/09/12 00:36:26;;;;;;;13.80;12.33;;;13.00;99.90;;;;;;5032675;28;20178;-67
2022/09/12 00:38:53;;;;;;;11.97;10.87;;;13.10;99.90;;;;;;5021957;28;20457;-67
2022/09/12 00:41:25;;;;;;;12.60;11.40;;;13.00;99.90;;;;;;5029663;28;20436;-67
2022/09/12 00:43:57;;;;;;;13.93;12.40;;;12.90;99.90;;;;;;5029520;28;20475;-67
2022/09/12 00:46:40;;;;;;;13.70;12.40;;;12.90;99.90;;;;;;5029328;28;20429;-67
2022/09/12 00:49:42;;;;;;;13.20;11.23;;;12.80;99.90;;;;;;5031762;28;20913;-67
2022/09/12 00:52:15;;;;;;;13.87;12.53;;;12.80;99.90;;;;;;5028388;28;20436;-67
2022/09/12 00:54:58;;;;;;;12.47;11.17;;;12.70;99.90;;;;;;5032218;28;20507;-67
2022/09/12 00:57:31;;;;;;;11.67;10.47;;;12.80;99.90;;;;;;5033918;28;20435;-67
2022/09/12 01:00:10;;;;;;;13.70;12.50;;;12.70;99.90;;;;;;5025979;28;20950;-67
2022/09/12 01:02:35;;;;;;;12.93;11.73;;;12.80;99.90;;;;;;5032177;28;20434;-67
2022/09/12 01:05:01;;;;;;;13.03;11.80;;;12.80;99.90;;;;;;5032902;28;21004;-67
2022/09/12 01:07:27;;;;;;;12.70;11.50;;;12.70;99.90;;;;;;5034103;28;20253;-67
2022/09/12 01:09:53;;;;;;;12.60;11.40;;;12.70;99.90;;;;;;5031678;28;20181;-67
2022/09/12 01:12:19;;;;;;;11.97;10.87;;;12.70;99.90;;;;;;5035880;28;20436;-67
2022/09/12 01:14:45;;;;;;;12.30;11.20;;;12.70;99.90;;;;;;5033043;28;20186;-67
2022/09/12 01:17:13;;;;;;;14.17;12.30;;;12.60;99.90;;;;;;5038808;28;20428;-67
2022/09/12 01:20:16;;;;;;;11.83;10.63;;;12.60;99.90;;;;;;5041925;28;20209;-67
2022/09/12 01:23:16;;;;;;;12.70;11.40;;;12.60;99.90;;;;;;5033641;28;20440;-67
2022/09/12 01:26:05;;;;;;;11.60;10.60;;;12.60;99.90;;;;;;5033487;28;20524;-67
2022/09/12 01:28:50;;;;;;;13.10;11.90;;;12.70;99.90;;;;;;5031812;28;20468;-67
2022/09/12 01:31:31;;;;;;;11.70;10.60;;;12.60;99.90;;;;;;5032138;28;20942;-67
2022/09/12 01:33:56;;;;;;;12.83;11.63;;;12.60;99.90;;;;;;5032368;28;20433;-67
2022/09/12 01:37:07;;;;;;;12.97;11.00;;;12.50;99.90;;;;;;5032581;28;20433;-67
2022/09/12 01:39:45;;;;;;;12.17;11.03;;;12.50;99.90;;;;;;5020444;28;20296;-67
2022/09/12 01:42:32;;;;;;;13.33;11.67;;;12.50;99.90;;;;;;5031083;28;20859;-67
2022/09/12 01:45:19;;;;;;;12.43;11.13;;;12.40;99.90;;;;;;5033311;28;20432;-67
2022/09/12 01:48:19;;;;;;;12.43;11.13;;;12.30;99.90;;;;;;5036758;28;20472;-67
2022/09/12 01:50:53;;;;;;;12.77;11.67;;;12.30;99.90;;;;;;5034316;28;20859;-67
2022/09/12 01:53:45;;;;;;;13.90;11.37;;;12.40;99.90;;;;;;5033364;28;20559;-67
2022/09/12 01:56:24;;;;;;;11.87;10.77;;;12.30;99.90;;;;;;5017424;28;20436;-67
2022/09/12 01:58:59;;;;;;;13.30;12.00;;;12.30;99.90;;;;;;5031049;28;20452;-67
2022/09/12 02:01:32;;;;;;;16.33;13.03;;;12.30;99.90;;;;;;5034747;28;20455;-67
2022/09/12 02:04:10;;;;;;;13.97;12.70;;;12.40;99.90;;;;;;5032127;28;20444;-67
2022/09/12 02:06:51;;;;;;;12.57;11.40;;;12.40;99.90;;;;;;5031400;28;20494;-67
2022/09/12 02:09:22;;;;;;;14.17;12.70;;;12.40;99.90;;;;;;5038285;28;20471;-67
2022/09/12 02:11:51;;;;;;;12.07;10.40;;;12.40;99.90;;;;;;5035506;28;20519;-67
2022/09/12 02:14:33;;;;;;;13.43;12.13;;;12.40;99.90;;;;;;5033899;28;20568;-67
2022/09/12 02:17:12;;;;;;;16.70;14.87;;;12.40;99.90;;;;;;5039242;28;20443;-67
2022/09/12 02:19:50;;;;;;;16.03;14.47;;;12.40;99.90;;;;;;5042126;28;20511;-67
2022/09/12 02:22:19;;;;;;;16.30;13.60;;;12.40;99.90;;;;;;5046418;28;20455;-67
2022/09/12 02:24:49;;;;;;;16.17;14.13;;;12.40;99.90;;;;;;5045445;28;20476;-67
2022/09/12 02:27:24;;;;;;;15.53;13.97;;;12.40;99.90;;;;;;5047916;28;20481;-67
2022/09/12 02:29:51;;;;;;;16.20;14.60;;;12.40;99.90;;;;;;5033061;28;20459;-67
2022/09/12 02:32:31;;;;;;;20.73;16.57;;;12.40;99.90;;;;;;5047865;28;20428;-67
2022/09/12 02:35:10;;;;;;;17.10;13.63;;;12.40;99.90;;;;;;5039532;28;20496;-67
2022/09/12 02:37:58;;;;;;;14.57;13.07;;;12.30;99.90;;;;;;5042625;28;20429;-67
2022/09/12 02:40:24;;;;;;;14.70;13.20;;;12.30;99.90;;;;;;5042582;28;20423;-67
2022/09/12 02:42:50;;;;;;;15.20;13.60;;;12.20;99.90;;;;;;5046967;28;20464;-67
2022/09/12 02:45:17;;;;;;;15.23;13.63;;;12.20;99.90;;;;;;5046918;28;20443;-67
2022/09/12 02:48:11;;;;;;;17.23;15.30;;;12.20;99.90;;;;;;5045388;28;20472;-66
2022/09/12 02:50:36;;;;;;;16.63;15.03;;;12.20;99.90;;;;;;5038130;28;20441;-66
2022/09/12 02:53:04;;;;;;;16.00;14.30;;;12.20;99.90;;;;;;5030809;28;20486;-66
2022/09/12 02:55:35;;;;;;;15.47;13.97;;;12.20;99.90;;;;;;5046198;28;20170;-66
2022/09/12 02:58:07;;;;;;;16.17;14.57;;;12.10;99.90;;;;;;5041384;28;20498;-66
2022/09/12 03:01:12;;;;;;;17.70;15.90;;;12.10;99.90;;;;;;5031193;28;20461;-66
2022/09/12 03:03:50;;;;;;;18.20;16.37;;;12.10;99.90;;;;;;5042903;28;20439;-66
2022/09/12 03:06:29;;;;;;;20.93;17.60;;;12.00;99.90;;;;;;5040212;28;20444;-66
2022/09/12 03:09:07;;;;;;;18.97;15.30;;;12.00;99.90;;;;;;5049767;28;20900;-66
2022/09/12 03:12:08;;;;;;;18.73;15.47;;;12.00;99.90;;;;;;5042656;28;20431;-66
2022/09/12 03:14:52;;;;;;;17.20;15.23;;;12.00;99.90;;;;;;5047870;28;20435;-66
2022/09/12 03:17:51;;;;;;;17.27;15.47;;;12.00;99.90;;;;;;5037255;28;20518;-66
2022/09/12 03:20:40;;;;;;;17.00;15.20;;;12.00;99.90;;;;;;5037844;28;20521;-66
2022/09/12 03:23:35;;;;;;;17.70;15.93;;;11.90;99.90;;;;;;5033496;28;20548;-66
2022/09/12 03:26:20;;;;;;;16.17;14.57;;;11.90;99.90;;;;;;5025217;28;20452;-66
2022/09/12 03:28:46;;;;;;;19.53;15.03;;;11.90;99.90;;;;;;5032123;28;20473;-66
2022/09/12 03:31:15;;;;;;;15.00;13.50;;;11.90;99.90;;;;;;5032963;28;20520;-66
2022/09/12 03:33:41;;;;;;;16.10;14.40;;;11.90;99.90;;;;;;5039142;28;20444;-66
2022/09/12 03:36:24;;;;;;;16.70;15.00;;;11.80;99.90;;;;;;5036763;28;20431;-66
2022/09/12 03:38:50;;;;;;;15.63;13.90;;;11.80;99.90;;;;;;5041839;28;20461;-66
2022/09/12 03:41:15;;;;;;;14.20;12.70;;;11.80;99.90;;;;;;5031226;28;20498;-66
2022/09/12 03:43:41;;;;;;;15.90;14.30;;;11.80;99.90;;;;;;5031821;28;20434;-66
2022/09/12 03:46:06;;;;;;;15.60;13.70;;;11.80;99.90;;;;;;5034680;28;20269;-66
2022/09/12 03:48:32;;;;;;;15.57;14.07;;;11.80;99.90;;;;;;5036815;28;20247;-66
2022/09/12 03:51:03;;;;;;;16.50;14.00;;;11.80;99.90;;;;;;5034052;28;20192;-66
2022/09/12 03:53:28;;;;;;;14.40;13.00;;;11.90;99.90;;;;;;5041076;28;20590;-66
2022/09/12 03:55:54;;;;;;;14.27;12.70;;;11.80;99.90;;;;;;5039699;28;20432;-66
2022/09/12 03:58:20;;;;;;;15.40;13.80;;;11.80;99.90;;;;;;5033322;28;20202;-66
2022/09/12 04:00:45;;;;;;;15.13;13.63;;;11.70;99.90;;;;;;5037033;28;20197;-66
2022/09/12 04:03:11;;;;;;;17.93;14.87;;;11.60;99.90;;;;;;5039144;28;20546;-66
2022/09/12 04:05:36;;;;;;;16.27;14.50;;;11.60;99.90;;;;;;5040605;28;20238;-66
2022/09/12 04:08:02;;;;;;;16.07;14.33;;;11.60;99.90;;;;;;5036094;28;20205;-66
2022/09/12 04:10:27;;;;;;;18.70;15.03;;;11.60;99.90;;;;;;5030340;28;20218;-66
2022/09/12 04:12:53;;;;;;;15.13;13.53;;;11.60;99.90;;;;;;5038279;28;20182;-66
2022/09/12 04:15:18;;;;;;;19.73;14.53;;;11.50;99.90;;;;;;5039104;28;20184;-66
2022/09/12 04:20:22;;;;;;;16.57;14.90;;;11.60;99.90;;;;;;5052748;28;20642;-66
2022/09/12 04:22:47;;;;;;;13.60;12.20;;;11.40;99.90;;;;;;5055382;28;20435;-66
2022/09/12 04:25:13;;;;;;;13.17;11.87;;;11.40;99.90;;;;;;5047230;28;20634;-66
2022/09/12 04:27:38;;;;;;;12.73;11.50;;;11.40;99.90;;;;;;5046832;28;20207;-66
2022/09/12 04:30:05;;;;;;;13.90;12.60;;;11.40;99.90;;;;;;5071350;28;20208;-66
2022/09/12 04:32:30;;;;;;;13.93;12.53;;;11.40;99.90;;;;;;5069227;28;20173;-66
2022/09/12 04:34:56;;;;;;;12.57;11.27;;;11.40;99.90;;;;;;5052304;28;20784;-66
2022/09/12 04:37:23;;;;;;;13.10;11.70;;;11.40;99.90;;;;;;5063751;28;20174;-66
2022/09/12 04:39:49;;;;;;;13.77;12.40;;;11.50;99.90;;;;;;5062540;28;20579;-66
2022/09/12 04:42:15;;;;;;;13.73;11.10;;;11.50;99.90;;;;;;5067630;28;20430;-66
2022/09/12 04:44:40;;;;;;;13.93;12.53;;;11.50;99.90;;;;;;5060528;28;20432;-66
2022/09/12 04:47:06;;;;;;;13.03;11.63;;;11.40;99.90;;;;;;5062413;28;20177;-66
2022/09/12 04:49:32;;;;;;;13.60;12.30;;;11.40;99.90;;;;;;5067034;28;20212;-66
2022/09/12 04:51:58;;;;;;;14.23;12.00;;;11.40;99.90;;;;;;5064191;28;20181;-66
2022/09/12 04:54:24;;;;;;;13.27;11.90;;;11.30;99.90;;;;;;5062637;28;20176;-66
2022/09/12 04:56:50;;;;;;;13.60;12.30;;;11.30;99.90;;;;;;5059383;28;20442;-66
2022/09/12 04:59:18;;;;;;;13.63;12.13;;;11.30;99.90;;;;;;5065442;28;20568;-65
2022/09/12 05:01:43;;;;;;;14.77;13.27;;;11.30;99.90;;;;;;5064315;28;20521;-66
2022/09/12 05:04:11;;;;;;;14.07;12.77;;;11.30;99.90;;;;;;5066602;28;20515;-66
2022/09/12 05:06:38;;;;;;;13.70;12.40;;;11.30;99.90;;;;;;5058271;28;20184;-66
2022/09/12 05:09:06;;;;;;;16.40;13.10;;;11.20;99.90;;;;;;5055900;28;20827;-66
2022/09/12 05:11:35;;;;;;;13.00;11.70;;;11.30;99.90;;;;;;5060799;28;20444;-66
2022/09/12 05:14:01;;;;;;;13.47;12.03;;;11.30;99.90;;;;;;5066575;28;20442;-66
2022/09/12 05:16:28;;;;;;;15.83;12.30;;;11.30;99.90;;;;;;5053518;28;20955;-67
2022/09/12 05:18:56;;;;;;;14.23;12.20;;;11.40;99.90;;;;;;5049487;28;20480;-67
2022/09/12 05:21:22;;;;;;;15.40;13.80;;;11.40;99.90;;;;;;5055098;28;20438;-66
2022/09/12 05:23:53;;;;;;;13.13;11.83;;;11.50;99.90;;;;;;5061719;28;20503;-66
2022/09/12 05:26:20;;;;;;;14.20;12.70;;;11.50;99.90;;;;;;5061726;28;20172;-66
2022/09/12 05:28:48;;;;;;;13.60;10.83;;;11.60;99.90;;;;;;5052592;28;20487;-66
2022/09/12 05:31:19;;;;;;;13.27;11.87;;;11.80;99.90;;;;;;5055335;28;20451;-66
2022/09/12 05:33:47;;;;;;;13.33;12.13;;;11.80;99.90;;;;;;5047725;28;20432;-66
2022/09/12 05:36:16;;;;;;;14.87;13.37;;;12.00;99.90;;;;;;5061140;28;20427;-66
2022/09/12 05:38:42;;;;;;;14.00;12.70;;;12.10;99.90;;;;;;5052358;28;20972;-66
2022/09/12 05:41:11;;;;;;;13.40;12.07;;;12.20;99.90;;;;;;5052942;28;20461;-66
2022/09/12 05:43:38;;;;;;;15.83;12.07;;;12.40;99.90;;;;;;5049607;28;20185;-66
2022/09/12 05:46:11;;;;;;;19.27;13.60;;;12.50;99.90;;;;;;5048616;28;20512;-66
2022/09/12 05:48:37;;;;;;;14.63;13.13;;;12.70;99.90;;;;;;5049598;28;20471;-66
2022/09/12 05:51:18;;;;;;;12.33;11.03;;;12.80;99.90;;;;;;5059550;28;20435;-66
2022/09/12 05:53:45;;;;;;;14.93;13.43;;;13.00;99.90;;;;;;5067148;28;20434;-66
2022/09/12 05:56:16;;;;;;;12.40;11.30;;;13.10;99.90;;;;;;5068055;28;20990;-66
2022/09/12 05:58:45;;;;;;;10.80;9.53;;;13.30;99.90;;;;;;5062202;28;20458;-66
2022/09/12 06:01:13;;;;;;;11.23;10.23;;;13.50;99.90;;;;;;5066078;28;20518;-66
2022/09/12 06:03:42;;;;;;;11.80;10.60;;;13.80;99.90;;;;;;5062224;28;20440;-66
2022/09/12 06:06:08;;;;;;;12.60;10.97;;;13.90;99.90;;;;;;5066406;28;20488;-67
2022/09/12 06:08:35;;;;;;;13.17;11.87;;;14.10;99.90;;;;;;5051791;28;20471;-67
2022/09/12 06:11:03;;;;;;;13.07;11.87;;;14.40;99.90;;;;;;5071646;28;20441;-68
2022/09/12 06:13:31;;;;;;;11.70;10.60;;;14.60;99.90;;;;;;5062903;28;20509;-68
2022/09/12 06:16:05;;;;;;;13.40;12.07;;;14.70;99.90;;;;;;5047750;28;21039;-67
2022/09/12 06:18:31;;;;;;;12.87;11.67;;;14.90;99.90;;;;;;5052086;28;20503;-66
2022/09/12 06:21:00;;;;;;;15.47;13.10;;;15.00;99.90;;;;;;5064539;28;20951;-66
2022/09/12 06:23:26;;;;;;;19.13;15.07;;;15.10;99.90;;;;;;5057258;28;20473;-66
2022/09/12 06:25:51;;;;;;;12.83;11.63;;;15.10;99.90;;;;;;5049307;28;20439;-66
2022/09/12 06:28:18;;;;;;;17.23;15.13;;;15.00;99.90;;;;;;5048315;28;20217;-66
2022/09/12 06:30:44;;;;;;;13.40;12.17;;;15.10;99.90;;;;;;5058928;28;20169;-67
2022/09/12 06:33:09;;;;;;;13.23;11.97;;;15.10;99.90;;;;;;5049672;28;20488;-66
2022/09/12 06:35:36;;;;;;;14.37;13.13;;;15.00;99.90;;;;;;5056765;28;20260;-66
2022/09/12 06:38:01;;;;;;;12.33;11.13;;;14.90;99.90;;;;;;5050878;28;20178;-66
2022/09/12 06:40:28;;;;;;;15.70;13.07;;;15.20;99.90;;;;;;5038367;28;20424;-66
2022/09/12 06:42:54;;;;;;;14.13;12.70;;;15.50;99.90;;;;;;5042561;28;20166;-66
2022/09/12 06:45:19;;;;;;;13.60;12.30;;;15.70;99.90;;;;;;5041864;28;20423;-66
2022/09/12 06:47:45;;;;;;;13.83;12.53;;;15.90;99.90;;;;;;5049523;28;20184;-65
2022/09/12 06:50:10;;;;;;;21.17;17.67;;;16.10;99.90;;;;;;5031861;28;20634;-66
2022/09/12 06:52:36;;;;;;;14.07;12.60;;;16.20;99.90;;;;;;5031819;28;20178;-66
2022/09/12 06:55:02;;;;;;;12.60;11.50;;;16.40;99.90;;;;;;5032729;28;20174;-67
2022/09/12 06:57:30;;;;;;;12.73;10.90;;;16.70;99.90;;;;;;5032659;28;20175;-67
2022/09/12 06:59:55;;;;;;;12.70;11.60;;;17.00;99.90;;;;;;5031732;28;20194;-67
2022/09/12 07:02:21;;;;;;;13.17;11.90;;;17.20;99.90;;;;;;5032513;28;20783;-66
2022/09/12 07:04:48;;;;;;;11.60;10.50;;;17.50;99.90;;;;;;5032653;28;20175;-67
2022/09/12 07:07:14;;;;;;;12.93;11.53;;;17.60;99.90;;;;;;5032405;28;20261;-66
2022/09/12 07:09:39;;;;;;;12.23;11.17;;;17.70;99.90;;;;;;5031365;28;20898;-66
2022/09/12 07:12:05;;;;;;;12.80;11.60;;;17.80;99.90;;;;;;5032116;28;20175;-66
2022/09/12 07:14:31;;;;;;;11.73;10.73;;;18.00;99.90;;;;;;5032282;28;20170;-66
2022/09/12 07:16:56;;;;;;;11.13;10.10;;;18.30;99.90;;;;;;5032152;28;20409;-66
2022/09/12 07:19:23;;;;;;;11.10;10.00;;;18.10;99.90;;;;;;5031260;28;20584;-66
2022/09/12 07:21:49;;;;;;;10.33;9.23;;;18.10;99.90;;;;;;5032142;28;20176;-66
2022/09/12 07:24:14;;;;;;;8.10;7.47;;;18.30;99.90;;;;;;5031969;28;20421;-67
2022/09/12 07:26:40;;;;;;;8.53;7.80;;;18.50;99.90;;;;;;5030617;28;20210;-67
2022/09/12 07:29:11;;;;;;;8.90;8.00;;;18.30;99.90;;;;;;5008971;28;20224;-67
2022/09/12 07:31:37;;;;;;;8.10;7.40;;;18.20;99.90;;;;;;5022905;28;20502;-66
2022/09/12 07:34:05;;;;;;;9.27;7.50;;;18.10;99.90;;;;;;5031216;28;20560;-66
2022/09/12 07:36:31;;;;;;;8.37;7.73;;;18.00;99.90;;;;;;5037769;28;20411;-66
2022/09/12 07:38:57;;;;;;;8.70;8.00;;;17.80;99.90;;;;;;5041709;28;20956;-66
2022/09/12 07:41:26;;;;;;;7.73;6.93;;;18.00;99.90;;;;;;5046908;28;20208;-66
2022/09/12 07:43:57;;;;;;;7.00;6.40;;;18.30;99.90;;;;;;5031968;28;20462;-66
2022/09/12 07:46:23;;;;;;;7.93;7.33;;;18.70;99.90;;;;;;5058117;28;21005;-66
2022/09/12 07:48:50;;;;;;;7.07;6.57;;;19.20;99.90;;;;;;5034898;28;20499;-66
2022/09/12 07:51:16;;;;;;;6.47;5.87;;;19.50;99.90;;;;;;5048049;28;20425;-67
2022/09/12 07:53:45;;;;;;;10.37;9.37;;;19.50;99.90;;;;;;5033154;28;20490;-65
2022/09/12 07:56:11;;;;;;;6.60;6.00;;;19.20;99.90;;;;;;5036615;28;20801;-67
2022/09/12 07:58:39;;;;;;;7.90;7.20;;;19.10;99.90;;;;;;5041246;28;20455;-66
2022/09/12 08:01:31;;;;;;;7.17;6.57;;;19.10;99.90;;;;;;5048746;28;20438;-66
2022/09/12 08:03:58;;;;;;;7.80;5.97;;;19.20;99.90;;;;;;5041828;28;20433;-66
2022/09/12 08:06:25;;;;;;;6.00;5.60;;;19.70;99.90;;;;;;5045169;28;20825;-66
2022/09/12 08:08:53;;;;;;;6.03;5.63;;;20.20;99.90;;;;;;5033579;28;20869;-66
2022/09/12 08:11:20;;;;;;;5.30;5.00;;;20.60;99.90;;;;;;5046188;28;20844;-66
2022/09/12 08:13:46;;;;;;;5.10;4.70;;;20.70;99.90;;;;;;5051465;28;20424;-66
2022/09/12 08:16:15;;;;;;;5.63;5.33;;;20.90;99.90;;;;;;5050102;28;20455;-66
2022/09/12 08:18:40;;;;;;;5.93;5.53;;;20.90;99.90;;;;;;5030429;28;20472;-66
2022/09/12 08:21:12;;;;;;;5.87;5.47;;;20.90;99.90;;;;;;5034866;28;20453;-66
2022/09/12 08:23:38;;;;;;;5.23;4.90;;;20.70;99.90;;;;;;5042998;28;20550;-66
2022/09/12 08:26:05;;;;;;;5.23;4.83;;;21.00;99.90;;;;;;5037713;28;20821;-66
2022/09/12 08:28:32;;;;;;;5.83;5.47;;;21.50;99.90;;;;;;5037381;28;20244;-66
2022/09/12 08:31:05;;;;;;;5.77;5.37;;;21.60;99.90;;;;;;5037078;28;20456;-66
2022/09/12 08:33:34;;;;;;;6.53;6.03;;;21.50;99.90;;;;;;5049208;28;20422;-65
2022/09/12 08:36:07;;;;;;;4.87;4.47;;;21.30;99.90;;;;;;5040352;28;20420;-66
2022/09/12 08:38:33;;;;;;;5.20;4.80;;;21.90;99.90;;;;;;5041326;28;20444;-65
2022/09/12 08:41:05;;;;;;;6.03;5.50;;;22.80;99.90;;;;;;5038528;28;20437;-64
2022/09/12 08:43:49;;;;;;;4.40;4.13;;;23.10;99.90;;;;;;5038618;28;20862;-64
2022/09/12 08:46:21;;;;;;;5.37;4.97;;;22.60;99.90;;;;;;5038427;28;20421;-64
2022/09/12 08:48:47;;;;;;;6.37;5.80;;;22.60;99.90;;;;;;5036460;28;20981;-64
2022/09/12 08:51:15;;;;;;;6.30;5.80;;;23.20;99.90;;;;;;5037454;28;20416;-63
2022/09/12 08:53:44;;;;;;;5.13;4.73;;;24.30;99.90;;;;;;5037258;28;20417;-64
2022/09/12 08:56:10;;;;;;;6.87;4.73;;;23.80;99.90;;;;;;5043912;28;20420;-63
2022/09/12 08:58:42;;;;;;;5.63;5.10;;;24.00;99.90;;;;;;5039624;28;20445;-64
2022/09/12 09:01:31;;;;;;;5.83;5.30;;;23.60;99.90;;;;;;5040723;28;20507;-64
2022/09/12 09:04:21;;;;;;;8.00;4.87;;;24.50;99.90;;;;;;5039264;28;20431;-64
2022/09/12 09:06:57;;;;;;;4.87;4.47;;;26.10;99.90;;;;;;5041844;28;20432;-64
2022/09/12 09:10:00;;;;;;;4.73;3.90;;;25.60;99.90;;;;;;5042963;28;21059;-64
2022/09/12 09:12:50;;;;;;;5.17;4.63;;;25.20;99.90;;;;;;5036758;28;20464;-64
2022/09/12 09:15:44;;;;;;;4.90;4.50;;;25.80;99.90;;;;;;5034200;28;20445;-65
2022/09/12 09:18:30;;;;;;;4.67;4.27;;;26.80;99.90;;;;;;5035281;28;20452;-64
2022/09/12 09:21:02;;;;;;;5.00;4.60;;;26.50;99.40;;;;;;5032699;28;20475;-64
2022/09/12 09:23:30;;;;;;;4.57;4.23;;;27.00;98.20;;;;;;5032791;28;20440;-63
2022/09/12 09:25:58;;;;;;;4.23;3.93;;;26.60;98.00;;;;;;5033211;28;20420;-64
2022/09/12 09:28:48;;;;;;;3.97;3.57;;;26.60;97.90;;;;;;5039540;28;20491;-64
2022/09/12 09:31:20;;;;;;;4.43;4.13;;;26.30;97.30;;;;;;5036586;28;20474;-64
2022/09/12 09:33:48;;;;;;;4.70;4.30;;;26.50;97.20;;;;;;5049687;28;20428;-64
2022/09/12 09:36:22;;;;;;;5.13;3.90;;;27.90;96.80;;;;;;5049714;28;20454;-64
2022/09/12 09:39:26;;;;;;;3.80;3.40;;;29.10;94.20;;;;;;5029298;28;20445;-64
2022/09/12 09:42:10;;;;;;;5.43;4.83;;;30.70;91.30;;;;;;5040732;28;20551;-64
2022/09/12 09:44:36;;;;;;;3.70;3.50;;;30.80;87.80;;;;;;5052504;28;20529;-64
2022/09/12 09:47:01;;;;;;;3.60;3.30;;;30.30;87.90;;;;;;5047623;28;20421;-64
2022/09/12 09:49:30;;;;;;;3.90;3.60;;;31.20;84.00;;;;;;5045475;28;20472;-64
2022/09/12 09:51:59;;;;;;;3.50;3.20;;;32.10;79.70;;;;;;5049383;28;20180;-64
2022/09/12 09:54:48;;;;;;;3.47;3.20;;;31.50;64.90;;;;;;5033546;28;20937;-64
2022/09/12 09:57:32;;;;;;;4.27;3.97;;;30.60;67.00;;;;;;5032022;28;20433;-64
2022/09/12 09:59:58;;;;;;;3.00;2.90;;;30.40;68.70;;;;;;5034216;28;20557;-64
2022/09/12 10:02:25;;;;;;;3.10;2.90;;;31.30;64.00;;;;;;5032223;28;20499;-64
2022/09/12 10:04:56;;;;;;;3.57;3.37;;;31.00;63.60;;;;;;5030936;28;20678;-65
2022/09/12 10:07:23;;;;;;;3.10;2.90;;;30.60;64.30;;;;;;5029959;28;20421;-64
2022/09/12 10:10:14;;;;;;;4.87;3.10;;;31.60;61.10;;;;;;5031132;28;20530;-64
2022/09/12 10:12:40;;;;;;;3.47;3.27;;;33.10;57.90;;;;;;5048356;28;20419;-64
2022/09/12 10:15:18;;;;;;;2.90;2.70;;;34.30;50.90;;;;;;5051822;28;20455;-64
2022/09/12 10:17:46;;;;;;;2.77;2.67;;;35.00;48.20;;;;;;5049557;28;20872;-65
2022/09/12 10:20:36;;;;;;;3.10;2.90;;;35.20;48.20;;;;;;5068307;22;20506;-65
2022/09/12 10:23:30;;;;;;;3.83;3.20;;;36.00;46.80;;;;;;5046834;28;20463;-65
2022/09/12 10:26:00;;;;;;;3.23;3.03;;;35.50;45.50;;;;;;5051903;28;20428;-66
2022/09/12 10:28:34;;;;;;;2.50;2.40;;;33.60;48.00;;;;;;5047066;28;20462;-65
2022/09/12 10:31:01;;;;;;;3.30;3.00;;;35.40;46.40;;;;;;5023980;28;20456;-65
2022/09/12 10:33:27;;;;;;;2.50;2.27;;;34.30;45.40;;;;;;5029577;28;20424;-65
2022/09/12 10:35:54;;;;;;;2.77;2.57;;;32.80;48.70;;;;;;5031943;28;20472;-67
2022/09/12 10:38:23;;;;;;;3.17;2.70;;;34.10;47.00;;;;;;5017254;28;20557;-67
2022/09/12 10:41:19;;;;;;;2.63;2.53;;;34.10;46.20;;;;;;5018598;28;20939;-67
2022/09/12 10:43:44;;;;;;;2.80;2.67;;;34.40;46.80;;;;;;5006740;28;20433;-67
2022/09/12 10:46:16;;;;;;;4.97;4.67;;;35.70;45.50;;;;;;5031713;28;20420;-67
2022/09/12 10:48:44;;;;;;;2.60;2.40;;;36.20;44.40;;;;;;5020551;28;20579;-67
2022/09/12 10:51:24;;;;;;;2.97;2.67;;;37.50;42.30;;;;;;5020423;28;20432;-67
2022/09/12 10:53:52;;;;;;;2.17;2.07;;;37.20;41.00;;;;;;5031143;28;20425;-67
2022/09/12 10:56:21;;;;;;;2.40;2.30;;;37.80;40.40;;;;;;5025559;28;20436;-66
2022/09/12 10:58:49;;;;;;;2.83;2.63;;;36.10;40.80;;;;;;5028206;28;20475;-67
2022/09/12 11:01:44;;;;;;;2.47;2.30;;;35.50;42.10;;;;;;5024830;28;20424;-67
2022/09/12 11:04:15;;;;;;;2.50;2.40;;;37.00;40.70;;;;;;5028931;28;20433;-67
2022/09/12 11:07:02;;;;;;;2.57;2.47;;;38.50;38.80;;;;;;5026442;28;20966;-67
2022/09/12 11:09:55;;;;;;;2.50;2.40;;;38.30;38.60;;;;;;5027443;28;20940;-67
2022/09/12 11:12:40;;;;;;;2.47;2.37;;;39.70;37.30;;;;;;5030149;28;20428;-67
2022/09/12 11:15:08;;;;;;;3.63;2.43;;;39.70;36.60;;;;;;5021923;28;20444;-67
2022/09/12 11:17:45;;;;;;;2.47;2.27;;;37.80;37.40;;;;;;5026938;28;20463;-67
2022/09/12 11:20:29;;;;;;;3.60;3.30;;;38.20;37.00;;;;;;5017759;28;20498;-67
2022/09/12 11:22:54;;;;;;;2.10;2.00;;;37.20;37.60;;;;;;5030966;28;20460;-67
2022/09/12 11:25:38;;;;;;;3.67;2.20;;;37.20;37.90;;;;;;5028438;28;20881;-67
2022/09/12 11:28:13;;;;;;;2.37;2.17;;;37.50;37.10;;;;;;5023778;28;20214;-66
2022/09/12 11:31:10;;;;;;;3.23;2.30;;;35.80;38.80;;;;;;5030956;28;20956;-66
2022/09/12 11:33:40;;;;;;;2.57;2.43;;;35.50;38.50;;;;;;5026878;28;20478;-66
2022/09/12 11:36:15;;;;;;;3.17;3.07;;;36.40;37.70;;;;;;5031163;28;20973;-67
2022/09/12 11:38:51;;;;;;;2.60;2.40;;;38.00;37.00;;;;;;5026338;28;20502;-66
2022/09/12 11:41:25;;;;;;;2.60;2.40;;;37.10;36.40;;;;;;5029282;28;20507;-66
2022/09/12 11:43:57;;;;;;;2.67;2.47;;;35.70;38.40;;;;;;5030870;28;20439;-66
2022/09/12 11:46:36;;;;;;;2.57;2.47;;;37.60;36.70;;;;;;5028226;28;20428;-67
2022/09/12 11:49:14;;;;;;;1.90;1.80;;;37.50;37.20;;;;;;5026213;28;20583;-66
2022/09/12 11:52:17;;;;;;;1.83;1.70;;;38.20;34.90;;;;;;5011250;28;20437;-67
2022/09/12 11:54:46;;;;;;;2.63;2.50;;;39.40;34.50;;;;;;5030670;28;20427;-67
2022/09/12 11:57:24;;;;;;;2.37;2.27;;;40.00;33.90;;;;;;5027565;28;20421;-67
2022/09/12 12:00:11;;;;;;;2.23;2.13;;;41.00;32.70;;;;;;5026865;28;20439;-67
2022/09/12 12:03:05;;;;;;;1.90;1.80;;;41.20;32.90;;;;;;5026399;28;20432;-67
2022/09/12 12:05:53;;;;;;;2.50;2.40;;;40.80;32.40;;;;;;5026037;28;20503;-67
2022/09/12 12:08:21;;;;;;;3.40;2.83;;;39.80;32.60;;;;;;5024679;28;20846;-67
2022/09/12 12:10:55;;;;;;;2.30;2.10;;;40.50;32.40;;;;;;5022790;28;20439;-67
2022/09/12 12:13:32;;;;;;;2.90;2.77;;;39.40;34.10;;;;;;5030599;28;20416;-67
2022/09/12 12:16:25;;;;;;;2.00;1.90;;;40.30;32.50;;;;;;5025503;28;20431;-66
2022/09/12 12:19:22;;;;;;;2.10;1.90;;;39.70;32.70;;;;;;5026019;28;20459;-67
2022/09/12 12:21:49;;;;;;;2.27;2.17;;;41.20;32.40;;;;;;5022026;28;20443;-65
2022/09/12 12:24:16;;;;;;;2.90;2.30;;;42.80;35.20;;;;;;5026650;28;20436;-65
2022/09/12 12:26:54;;;;;;;2.10;2.00;;;42.80;38.10;;;;;;5030729;28;20961;-65
2022/09/12 12:29:20;;;;;;;2.63;2.47;;;40.50;40.10;;;;;;5020057;28;20556;-65
2022/09/12 12:32:18;;;;;;;2.10;2.00;;;41.60;39.20;;;;;;5030212;28;20854;-64
2022/09/12 12:34:45;;;;;;;2.20;2.10;;;42.30;38.40;;;;;;5023376;28;20677;-65
2022/09/12 12:37:26;;;;;;;2.10;2.00;;;43.80;38.30;;;;;;5030040;28;20456;-65
2022/09/12 12:39:59;;;;;;;2.80;2.37;;;43.80;37.80;;;;;;5024035;28;20447;-65
2022/09/12 12:42:34;;;;;;;2.23;2.00;;;44.30;29.00;;;;;;5029421;28;20429;-65
2022/09/12 12:45:25;;;;;;;3.30;3.10;;;43.00;32.50;;;;;;5033287;28;20416;-65
2022/09/12 12:47:57;;;;;;;2.57;2.37;;;41.70;33.70;;;;;;5022164;28;20932;-65
2022/09/12 12:50:25;;;;;;;2.50;2.30;;;40.70;33.70;;;;;;5033131;28;20531;-65
2022/09/12 12:53:02;;;;;;;3.37;2.13;;;39.00;35.50;;;;;;5026983;28;20941;-64
2022/09/12 12:55:32;;;;;;;2.00;1.90;;;40.30;34.10;;;;;;5033801;28;20432;-64
2022/09/12 12:57:59;;;;;;;2.13;2.03;;;41.10;33.60;;;;;;5027889;28;20437;-65
2022/09/12 13:00:26;;;;;;;2.13;2.03;;;41.70;34.40;;;;;;5026562;28;20445;-65
2022/09/12 13:03:25;;;;;;;2.10;1.90;;;43.90;39.10;;;;;;5033607;28;20421;-65
2022/09/12 13:05:55;;;;;;;2.43;2.27;;;42.50;39.50;;;;;;5028031;28;20421;-65
2022/09/12 13:08:37;;;;;;;1.90;1.80;;;43.40;38.80;;;;;;5028814;28;20547;-65